createdAt,value
2017-09-26T00:00:38.264Z,12.86
2017-09-26T00:01:38.255Z,12.79
2017-09-26T00:02:37.920Z,12.72
2017-09-26T00:03:37.914Z,12.68
2017-09-26T00:04:38.239Z,12.75
2017-09-26T00:05:38.228Z,12.77
2017-09-26T00:06:38.222Z,12.77
2017-09-26T00:07:37.886Z,12.75
2017-09-26T00:08:37.881Z,12.72
2017-09-26T00:09:38.204Z,12.72
2017-09-26T00:10:38.195Z,12.7
2017-09-26T00:11:38.184Z,12.75
2017-09-26T00:12:37.852Z,12.7
2017-09-26T00:13:37.842Z,12.67
2017-09-26T00:14:38.165Z,12.72
2017-09-26T00:15:38.154Z,12.65
2017-09-26T00:16:38.146Z,12.71
2017-09-26T00:17:38.145Z,12.71
2017-09-26T00:18:38.135Z,12.65
2017-09-26T00:19:38.123Z,12.7
2017-09-26T00:20:38.121Z,12.65
2017-09-26T00:21:37.784Z,12.68
2017-09-26T00:22:38.109Z,12.72
2017-09-26T00:23:38.103Z,12.71
2017-09-26T00:24:38.088Z,12.67
2017-09-26T00:25:38.082Z,12.71
2017-09-26T00:26:38.079Z,12.7
2017-09-26T00:27:38.067Z,12.67
2017-09-26T00:28:38.058Z,12.65
2017-09-26T00:29:37.724Z,12.71
2017-09-26T00:30:37.718Z,12.7
2017-09-26T00:31:38.036Z,12.64
2017-09-26T00:32:38.028Z,12.71
2017-09-26T00:33:38.022Z,12.71
2017-09-26T00:34:37.688Z,12.72
2017-09-26T00:35:37.675Z,12.7
2017-09-26T00:36:37.998Z,12.7
2017-09-26T00:37:37.664Z,12.75
2017-09-26T00:38:37.983Z,12.78
2017-09-26T00:39:37.975Z,12.72
2017-09-26T00:40:37.641Z,12.74
2017-09-26T00:41:37.960Z,12.77
2017-09-26T00:42:37.953Z,12.72
2017-09-26T00:43:37.617Z,12.72
2017-09-26T00:44:37.941Z,12.72
2017-09-26T00:45:37.930Z,12.75
2017-09-26T00:46:37.917Z,12.75
2017-09-26T00:47:37.913Z,12.72
2017-09-26T00:48:37.905Z,12.71
2017-09-26T00:49:37.568Z,12.74
2017-09-26T00:50:37.892Z,12.68
2017-09-26T00:51:37.881Z,12.78
2017-09-26T00:52:37.874Z,12.7
2017-09-26T00:53:37.869Z,12.64
2017-09-26T00:54:37.858Z,12.65
2017-09-26T00:55:37.852Z,12.7
2017-09-26T00:56:37.517Z,12.72
2017-09-26T00:57:37.839Z,12.67
2017-09-26T00:58:37.829Z,12.71
2017-09-26T00:59:37.824Z,12.65
2017-09-26T01:00:37.817Z,12.68
2017-09-26T01:01:37.479Z,12.65
2017-09-26T01:02:37.805Z,12.67
2017-09-26T01:03:37.798Z,12.71
2017-09-26T01:04:37.462Z,12.64
2017-09-26T01:05:37.780Z,12.68
2017-09-26T01:06:37.767Z,12.68
2017-09-26T01:07:37.757Z,12.67
2017-09-26T01:08:37.425Z,12.64
2017-09-26T01:09:37.747Z,12.65
2017-09-26T01:10:37.742Z,12.65
2017-09-26T01:11:37.727Z,12.71
2017-09-26T01:12:37.724Z,12.72
2017-09-26T01:13:37.716Z,12.75
2017-09-26T01:14:37.710Z,12.74
2017-09-26T01:15:37.700Z,12.75
2017-09-26T01:16:37.368Z,12.78
2017-09-26T01:17:37.355Z,12.75
2017-09-26T01:18:37.347Z,12.7
2017-09-26T01:19:37.344Z,12.78
2017-09-26T01:20:37.663Z,12.72
2017-09-26T01:21:37.653Z,12.72
2017-09-26T01:22:37.647Z,12.75
2017-09-26T01:23:37.635Z,12.71
2017-09-26T01:24:37.629Z,12.77
2017-09-26T01:25:37.296Z,12.75
2017-09-26T01:26:37.617Z,12.78
2017-09-26T01:27:37.605Z,12.71
2017-09-26T01:28:37.600Z,12.78
2017-09-26T01:29:37.267Z,12.78
2017-09-26T01:30:37.584Z,12.78
2017-09-26T01:31:37.576Z,12.82
2017-09-26T01:32:37.240Z,12.92
2017-09-26T01:33:37.564Z,12.83
2017-09-26T01:34:37.553Z,12.83
2017-09-26T01:35:37.543Z,12.79
2017-09-26T01:36:37.543Z,12.86
2017-09-26T01:37:37.529Z,12.9
2017-09-26T01:38:37.530Z,12.96
2017-09-26T01:39:37.516Z,12.96
2017-09-26T01:40:37.179Z,12.95
2017-09-26T01:41:37.502Z,12.95
2017-09-26T01:42:37.496Z,12.93
2017-09-26T01:43:37.484Z,13
2017-09-26T01:44:36.826Z,12.97
2017-09-26T01:45:37.471Z,13.03
2017-09-26T01:46:37.135Z,13.03
2017-09-26T01:47:37.466Z,13.03
2017-09-26T01:48:37.445Z,13.01
2017-09-26T01:49:37.447Z,12.97
2017-09-26T01:50:37.438Z,13.03
2017-09-26T01:51:37.430Z,13.15
2017-09-26T01:52:37.418Z,13
2017-09-26T01:53:37.412Z,13.04
2017-09-26T01:54:37.126Z,13.07
2017-09-26T01:55:37.400Z,13.08
2017-09-26T01:56:37.061Z,13.14
2017-09-26T01:57:37.061Z,13.1
2017-09-26T01:58:37.414Z,13.12
2017-09-26T01:59:37.364Z,13.11
2017-09-26T02:00:37.364Z,13.17
2017-09-26T02:01:37.027Z,13.17
2017-09-26T02:02:37.350Z,13.11
2017-09-26T02:03:37.336Z,13.12
2017-09-26T02:04:37.332Z,13.23
2017-09-26T02:05:37.323Z,13.14
2017-09-26T02:06:37.314Z,13.2
2017-09-26T02:07:36.983Z,13.17
2017-09-26T02:08:37.302Z,13.14
2017-09-26T02:09:36.970Z,13.28
2017-09-26T02:10:36.960Z,13.25
2017-09-26T02:11:37.280Z,13.17
2017-09-26T02:12:37.272Z,13.23
2017-09-26T02:13:37.264Z,13.19
2017-09-26T02:14:37.258Z,13.15
2017-09-26T02:15:37.251Z,13.17
2017-09-26T02:16:36.915Z,13.29
2017-09-26T02:17:37.238Z,13.25
2017-09-26T02:18:37.226Z,13.28
2017-09-26T02:19:37.225Z,13.23
2017-09-26T02:20:37.217Z,13.26
2017-09-26T02:21:37.205Z,13.36
2017-09-26T02:22:36.550Z,13.28
2017-09-26T02:23:37.190Z,13.29
2017-09-26T02:24:37.184Z,13.36
2017-09-26T02:25:37.176Z,13.39
2017-09-26T02:26:37.171Z,13.44
2017-09-26T02:27:37.165Z,13.39
2017-09-26T02:28:37.153Z,13.36
2017-09-26T02:29:37.149Z,13.42
2017-09-26T02:30:37.141Z,13.39
2017-09-26T02:31:37.131Z,13.44
2017-09-26T02:32:37.130Z,13.42
2017-09-26T02:33:37.117Z,13.59
2017-09-26T02:34:36.787Z,13.54
2017-09-26T02:35:37.108Z,13.48
2017-09-26T02:36:36.769Z,13.59
2017-09-26T02:37:37.064Z,13.59
2017-09-26T02:38:37.085Z,13.62
2017-09-26T02:39:36.749Z,13.66
2017-09-26T02:40:37.081Z,13.6
2017-09-26T02:41:37.061Z,13.63
2017-09-26T02:42:37.063Z,13.66
2017-09-26T02:43:37.049Z,13.63
2017-09-26T02:44:37.090Z,13.7
2017-09-26T02:45:37.036Z,13.7
2017-09-26T02:46:37.031Z,13.7
2017-09-26T02:47:37.022Z,13.73
2017-09-26T02:48:37.012Z,13.82
2017-09-26T02:49:37.039Z,13.78
2017-09-26T02:50:36.999Z,13.78
2017-09-26T02:51:36.988Z,13.75
2017-09-26T02:52:36.985Z,13.85
2017-09-26T02:53:36.976Z,13.88
2017-09-26T02:54:36.972Z,13.87
2017-09-26T02:55:36.961Z,13.82
2017-09-26T02:56:36.957Z,13.89
2017-09-26T02:57:36.629Z,13.89
2017-09-26T02:58:36.942Z,13.87
2017-09-26T02:59:36.933Z,13.89
2017-09-26T03:00:36.928Z,13.88
2017-09-26T03:01:36.918Z,13.89
2017-09-26T03:02:36.925Z,13.97
2017-09-26T03:03:36.912Z,13.97
2017-09-26T03:04:36.898Z,14.04
2017-09-26T03:05:36.895Z,14.04
2017-09-26T03:06:36.888Z,14
2017-09-26T03:07:36.878Z,14.07
2017-09-26T03:08:36.874Z,14.04
2017-09-26T03:09:36.866Z,14
2017-09-26T03:10:36.860Z,14.04
2017-09-26T03:11:36.854Z,14.07
2017-09-26T03:12:36.852Z,14.04
2017-09-26T03:13:36.837Z,14.04
2017-09-26T03:14:36.833Z,14.12
2017-09-26T03:15:36.827Z,14.03
2017-09-26T03:16:36.820Z,14.06
2017-09-26T03:17:36.488Z,14.09
2017-09-26T03:18:36.478Z,14.1
2017-09-26T03:19:36.797Z,14.06
2017-09-26T03:20:36.790Z,14.04
2017-09-26T03:21:36.781Z,14.14
2017-09-26T03:22:36.789Z,14.14
2017-09-26T03:23:36.770Z,14.09
2017-09-26T03:24:36.775Z,14.07
2017-09-26T03:25:36.102Z,14.09
2017-09-26T03:26:36.752Z,14.09
2017-09-26T03:27:36.087Z,14.15
2017-09-26T03:28:36.409Z,14.17
2017-09-26T03:29:36.725Z,14.2
2017-09-26T03:30:36.729Z,14.14
2017-09-26T03:31:36.387Z,14.2
2017-09-26T03:32:36.709Z,14.24
2017-09-26T03:33:36.706Z,14.17
2017-09-26T03:34:36.694Z,14.2
2017-09-26T03:35:36.689Z,14.24
2017-09-26T03:36:36.681Z,14.24
2017-09-26T03:37:36.347Z,14.22
2017-09-26T03:38:36.674Z,14.28
2017-09-26T03:39:36.665Z,14.28
2017-09-26T03:40:36.654Z,14.24
2017-09-26T03:41:36.645Z,14.22
2017-09-26T03:42:36.643Z,14.21
2017-09-26T03:43:36.641Z,14.22
2017-09-26T03:44:36.625Z,14.22
2017-09-26T03:45:36.622Z,14.22
2017-09-26T03:46:36.613Z,14.18
2017-09-26T03:47:36.277Z,14.24
2017-09-26T03:48:36.604Z,14.32
2017-09-26T03:49:36.591Z,14.25
2017-09-26T03:50:36.586Z,14.36
2017-09-26T03:51:36.579Z,14.21
2017-09-26T03:52:36.570Z,14.28
2017-09-26T03:53:36.570Z,14.28
2017-09-26T03:54:36.560Z,14.35
2017-09-26T03:55:36.551Z,14.28
2017-09-26T03:56:36.548Z,14.33
2017-09-26T03:57:36.537Z,14.33
2017-09-26T03:58:36.532Z,14.32
2017-09-26T03:59:36.527Z,14.36
2017-09-26T04:00:36.517Z,14.28
2017-09-26T04:01:36.515Z,14.32
2017-09-26T04:02:36.175Z,14.33
2017-09-26T04:03:36.500Z,14.36
2017-09-26T04:04:36.496Z,14.27
2017-09-26T04:05:36.484Z,14.25
2017-09-26T04:06:36.480Z,14.28
2017-09-26T04:07:36.473Z,14.33
2017-09-26T04:08:36.472Z,14.27
2017-09-26T04:09:36.132Z,14.28
2017-09-26T04:10:36.452Z,14.28
2017-09-26T04:11:36.451Z,14.24
2017-09-26T04:12:36.436Z,14.22
2017-09-26T04:13:36.104Z,14.35
2017-09-26T04:14:36.430Z,14.27
2017-09-26T04:15:36.422Z,14.33
2017-09-26T04:16:36.409Z,14.27
2017-09-26T04:17:36.406Z,14.33
2017-09-26T04:18:36.073Z,14.35
2017-09-26T04:19:36.395Z,14.36
2017-09-26T04:20:36.381Z,14.28
2017-09-26T04:21:36.391Z,14.4
2017-09-26T04:22:36.372Z,14.24
2017-09-26T04:23:36.362Z,14.35
2017-09-26T04:24:36.034Z,14.37
2017-09-26T04:25:36.352Z,14.43
2017-09-26T04:26:36.055Z,14.43
2017-09-26T04:27:36.339Z,14.37
2017-09-26T04:28:36.335Z,14.42
2017-09-26T04:29:36.326Z,14.39
2017-09-26T04:30:35.990Z,14.47
2017-09-26T04:31:36.313Z,14.39
2017-09-26T04:32:36.304Z,14.57
2017-09-26T04:33:35.973Z,14.43
2017-09-26T04:34:36.302Z,14.51
2017-09-26T04:35:36.287Z,14.54
2017-09-26T04:36:35.956Z,14.51
2017-09-26T04:37:36.273Z,14.5
2017-09-26T04:38:36.282Z,14.4
2017-09-26T04:39:35.929Z,14.46
2017-09-26T04:40:35.599Z,14.45
2017-09-26T04:41:36.252Z,14.5
2017-09-26T04:42:36.237Z,14.45
2017-09-26T04:43:36.235Z,14.43
2017-09-26T04:44:36.227Z,14.51
2017-09-26T04:45:36.221Z,14.58
2017-09-26T04:46:36.237Z,14.5
2017-09-26T04:47:36.206Z,14.51
2017-09-26T04:48:36.202Z,14.55
2017-09-26T04:49:36.196Z,14.58
2017-09-26T04:50:36.187Z,14.52
2017-09-26T04:51:36.184Z,14.55
2017-09-26T04:52:36.174Z,14.57
2017-09-26T04:53:36.166Z,14.61
2017-09-26T04:54:36.165Z,14.5
2017-09-26T04:55:36.159Z,14.57
2017-09-26T04:56:36.149Z,14.54
2017-09-26T04:57:35.813Z,14.58
2017-09-26T04:58:36.144Z,14.57
2017-09-26T04:59:36.205Z,14.61
2017-09-26T05:00:36.118Z,14.54
2017-09-26T05:01:36.115Z,14.54
2017-09-26T05:02:36.108Z,14.61
2017-09-26T05:03:36.042Z,14.58
2017-09-26T05:04:35.723Z,14.58
2017-09-26T05:05:36.028Z,14.57
2017-09-26T05:06:36.021Z,14.61
2017-09-26T05:07:36.025Z,14.64
2017-09-26T05:08:36.009Z,14.68
2017-09-26T05:09:36.004Z,14.65
2017-09-26T05:10:36.002Z,14.68
2017-09-26T05:11:35.989Z,14.77
2017-09-26T05:12:35.667Z,14.68
2017-09-26T05:13:35.981Z,14.69
2017-09-26T05:14:35.976Z,14.64
2017-09-26T05:15:35.976Z,14.72
2017-09-26T05:16:35.958Z,14.64
2017-09-26T05:17:35.632Z,14.68
2017-09-26T05:18:35.947Z,14.64
2017-09-26T05:19:35.939Z,14.64
2017-09-26T05:20:35.932Z,14.57
2017-09-26T05:21:35.931Z,14.62
2017-09-26T05:22:35.919Z,14.6
2017-09-26T05:23:35.916Z,14.6
2017-09-26T05:24:35.906Z,14.55
2017-09-26T05:25:35.899Z,14.57
2017-09-26T05:26:35.893Z,14.57
2017-09-26T05:27:35.570Z,14.57
2017-09-26T05:28:35.885Z,14.61
2017-09-26T05:29:35.880Z,14.58
2017-09-26T05:30:35.866Z,14.62
2017-09-26T05:31:35.895Z,14.7
2017-09-26T05:32:35.858Z,14.62
2017-09-26T05:33:35.848Z,14.57
2017-09-26T05:34:35.523Z,14.72
2017-09-26T05:35:35.840Z,14.62
2017-09-26T05:36:35.828Z,14.64
2017-09-26T05:37:35.824Z,14.65
2017-09-26T05:38:35.812Z,14.7
2017-09-26T05:39:35.808Z,14.61
2017-09-26T05:40:35.805Z,14.52
2017-09-26T05:41:35.475Z,14.64
2017-09-26T05:42:35.788Z,14.64
2017-09-26T05:43:35.786Z,14.7
2017-09-26T05:44:35.459Z,14.6
2017-09-26T05:45:35.451Z,14.72
2017-09-26T05:46:35.775Z,14.78
2017-09-26T05:47:35.757Z,14.64
2017-09-26T05:48:35.750Z,14.62
2017-09-26T05:49:35.428Z,14.77
2017-09-26T05:50:35.739Z,14.68
2017-09-26T05:51:35.412Z,14.7
2017-09-26T05:52:35.727Z,14.75
2017-09-26T05:53:35.401Z,14.8
2017-09-26T05:54:35.714Z,14.75
2017-09-26T05:55:35.708Z,14.73
2017-09-26T05:56:35.380Z,14.8
2017-09-26T05:57:35.697Z,14.86
2017-09-26T05:58:35.370Z,14.88
2017-09-26T05:59:35.683Z,14.83
2017-09-26T06:00:35.675Z,14.84
2017-09-26T06:01:35.671Z,14.91
2017-09-26T06:02:35.664Z,14.96
2017-09-26T06:03:35.340Z,14.95
2017-09-26T06:04:35.648Z,14.91
2017-09-26T06:05:35.646Z,15.01
2017-09-26T06:06:35.638Z,14.94
2017-09-26T06:07:35.627Z,14.92
2017-09-26T06:08:35.624Z,14.98
2017-09-26T06:09:35.618Z,14.99
2017-09-26T06:10:35.617Z,15.06
2017-09-26T06:11:35.287Z,15.06
2017-09-26T06:12:35.282Z,15.11
2017-09-26T06:13:35.277Z,15.09
2017-09-26T06:14:35.270Z,15.01
2017-09-26T06:15:35.580Z,15.07
2017-09-26T06:16:35.256Z,15.09
2017-09-26T06:17:35.252Z,15.16
2017-09-26T06:18:35.243Z,15.16
2017-09-26T06:19:35.563Z,15.14
2017-09-26T06:20:34.909Z,15.17
2017-09-26T06:21:35.227Z,15.1
2017-09-26T06:22:34.898Z,15.21
2017-09-26T06:23:35.215Z,15.19
2017-09-26T06:24:35.529Z,15.19
2017-09-26T06:25:35.525Z,15.19
2017-09-26T06:26:35.204Z,15.28
2017-09-26T06:27:35.188Z,15.27
2017-09-26T06:28:35.506Z,15.27
2017-09-26T06:29:35.503Z,15.27
2017-09-26T06:30:35.169Z,15.27
2017-09-26T06:31:35.484Z,15.31
2017-09-26T06:32:35.479Z,15.27
2017-09-26T06:33:35.472Z,15.29
2017-09-26T06:34:35.473Z,15.34
2017-09-26T06:35:35.465Z,15.25
2017-09-26T06:36:35.454Z,15.23
2017-09-26T06:37:35.450Z,15.27
2017-09-26T06:38:35.445Z,15.32
2017-09-26T06:39:34.797Z,15.36
2017-09-26T06:40:35.112Z,15.35
2017-09-26T06:41:35.428Z,15.38
2017-09-26T06:42:35.419Z,15.46
2017-09-26T06:43:35.416Z,15.38
2017-09-26T06:44:35.407Z,15.36
2017-09-26T06:45:35.399Z,15.44
2017-09-26T06:46:35.397Z,15.44
2017-09-26T06:47:35.395Z,15.46
2017-09-26T06:48:35.382Z,15.49
2017-09-26T06:49:35.389Z,15.44
2017-09-26T06:50:35.065Z,15.62
2017-09-26T06:51:35.367Z,15.53
2017-09-26T06:52:35.044Z,15.69
2017-09-26T06:53:35.036Z,15.62
2017-09-26T06:54:35.039Z,15.75
2017-09-26T06:55:35.350Z,15.74
2017-09-26T06:56:35.337Z,15.74
2017-09-26T06:57:35.016Z,15.82
2017-09-26T06:58:35.328Z,15.74
2017-09-26T06:59:35.319Z,15.76
2017-09-26T07:00:35.319Z,15.82
2017-09-26T07:01:34.989Z,15.75
2017-09-26T07:02:35.308Z,15.78
2017-09-26T07:03:35.303Z,15.8
2017-09-26T07:04:35.327Z,15.72
2017-09-26T07:05:35.288Z,15.8
2017-09-26T07:06:35.284Z,15.83
2017-09-26T07:07:35.277Z,15.84
2017-09-26T07:08:35.279Z,15.87
2017-09-26T07:09:35.278Z,15.76
2017-09-26T07:10:35.259Z,15.84
2017-09-26T07:11:35.259Z,15.8
2017-09-26T07:12:35.251Z,15.72
2017-09-26T07:13:34.922Z,15.71
2017-09-26T07:14:35.238Z,15.68
2017-09-26T07:15:35.233Z,15.76
2017-09-26T07:16:35.230Z,15.8
2017-09-26T07:17:35.225Z,15.71
2017-09-26T07:18:35.224Z,15.82
2017-09-26T07:19:34.888Z,15.86
2017-09-26T07:20:34.890Z,15.83
2017-09-26T07:21:35.200Z,15.82
2017-09-26T07:22:35.197Z,15.89
2017-09-26T07:23:35.187Z,15.86
2017-09-26T07:24:35.183Z,15.96
2017-09-26T07:25:34.864Z,15.93
2017-09-26T07:26:35.170Z,16.01
2017-09-26T07:27:35.180Z,16
2017-09-26T07:28:35.161Z,15.93
2017-09-26T07:29:35.157Z,15.94
2017-09-26T07:30:35.154Z,16.07
2017-09-26T07:31:35.146Z,16.11
2017-09-26T07:32:34.824Z,16.12
2017-09-26T07:33:35.139Z,16.21
2017-09-26T07:34:35.131Z,16.25
2017-09-26T07:35:35.123Z,16.27
2017-09-26T07:36:35.121Z,16.28
2017-09-26T07:37:34.802Z,16.33
2017-09-26T07:38:34.789Z,16.39
2017-09-26T07:39:35.104Z,16.34
2017-09-26T07:40:35.102Z,16.45
2017-09-26T07:41:34.775Z,16.43
2017-09-26T07:42:34.777Z,16.6
2017-09-26T07:43:34.768Z,16.68
2017-09-26T07:44:34.759Z,16.75
2017-09-26T07:45:35.075Z,16.71
2017-09-26T07:46:35.070Z,16.89
2017-09-26T07:47:35.066Z,16.83
2017-09-26T07:48:35.360Z,16.83
2017-09-26T07:49:35.057Z,16.81
2017-09-26T07:50:34.736Z,16.83
2017-09-26T07:51:35.041Z,16.88
2017-09-26T07:52:34.720Z,16.91
2017-09-26T07:53:34.751Z,16.97
2017-09-26T07:54:35.032Z,16.97
2017-09-26T07:55:34.708Z,17.12
2017-09-26T07:56:35.059Z,17.03
2017-09-26T07:57:35.024Z,16.97
2017-09-26T07:58:34.697Z,16.98
2017-09-26T07:59:34.692Z,16.94
2017-09-26T08:00:35.005Z,16.97
2017-09-26T08:01:35.000Z,17.04
2017-09-26T08:02:34.995Z,17.12
2017-09-26T08:03:34.673Z,17.15
2017-09-26T08:04:34.987Z,17.26
2017-09-26T08:05:34.981Z,17.28
2017-09-26T08:06:34.655Z,17.41
2017-09-26T08:07:34.977Z,17.43
2017-09-26T08:08:34.968Z,17.55
2017-09-26T08:09:34.960Z,17.58
2017-09-26T08:10:34.999Z,17.62
2017-09-26T08:11:34.637Z,17.63
2017-09-26T08:12:34.959Z,17.64
2017-09-26T08:13:34.950Z,17.64
2017-09-26T08:14:34.943Z,17.72
2017-09-26T08:15:34.618Z,17.81
2017-09-26T08:16:34.938Z,17.82
2017-09-26T08:17:34.931Z,17.9
2017-09-26T08:18:34.612Z,18.05
2017-09-26T08:19:34.925Z,18.1
2017-09-26T08:20:34.920Z,18.2
2017-09-26T08:21:34.916Z,18.25
2017-09-26T08:22:34.913Z,18.25
2017-09-26T08:23:34.914Z,18.25
2017-09-26T08:24:34.905Z,18.35
2017-09-26T08:25:34.903Z,18.27
2017-09-26T08:26:34.579Z,18.3
2017-09-26T08:27:34.891Z,18.44
2017-09-26T08:28:34.896Z,18.37
2017-09-26T08:29:34.566Z,18.42
2017-09-26T08:30:34.811Z,18.47
2017-09-26T08:31:34.558Z,18.48
2017-09-26T08:32:34.557Z,18.41
2017-09-26T08:33:34.550Z,18.41
2017-09-26T08:34:34.864Z,18.48
2017-09-26T08:35:34.862Z,18.57
2017-09-26T08:36:34.861Z,18.6
2017-09-26T08:37:34.861Z,18.73
2017-09-26T08:38:34.533Z,18.8
2017-09-26T08:39:34.850Z,18.75
2017-09-26T08:40:34.847Z,18.8
2017-09-26T08:41:34.525Z,18.73
2017-09-26T08:42:34.842Z,18.76
2017-09-26T08:43:34.513Z,18.82
2017-09-26T08:44:34.513Z,18.9
2017-09-26T08:45:34.510Z,18.88
2017-09-26T08:46:34.826Z,18.81
2017-09-26T08:47:34.498Z,18.78
2017-09-26T08:48:34.822Z,18.84
2017-09-26T08:49:34.818Z,18.92
2017-09-26T08:50:34.811Z,18.91
2017-09-26T08:51:34.496Z,19
2017-09-26T08:52:34.490Z,19.06
2017-09-26T08:53:34.485Z,19.16
2017-09-26T08:54:34.804Z,19.18
2017-09-26T08:55:34.797Z,19.14
2017-09-26T08:56:34.153Z,19.11
2017-09-26T08:57:34.792Z,19.25
2017-09-26T08:58:34.789Z,19.26
2017-09-26T08:59:34.144Z,19.19
2017-09-26T09:00:34.783Z,19.22
2017-09-26T09:01:35.033Z,19.31
2017-09-26T09:02:34.774Z,19.33
2017-09-26T09:03:34.773Z,19.32
2017-09-26T09:04:34.769Z,19.5
2017-09-26T09:05:34.773Z,19.78
2017-09-26T09:06:35.562Z,19.71
2017-09-26T09:07:34.760Z,19.83
2017-09-26T09:08:34.760Z,19.86
2017-09-26T09:09:34.757Z,19.91
2017-09-26T09:10:34.752Z,19.96
2017-09-26T09:11:35.051Z,19.92
2017-09-26T09:12:34.431Z,19.94
2017-09-26T09:13:34.977Z,19.91
2017-09-26T09:14:34.424Z,20.05
2017-09-26T09:15:34.742Z,19.91
2017-09-26T09:16:34.742Z,20.1
2017-09-26T09:17:34.415Z,20.03
2017-09-26T09:18:34.420Z,20.06
2017-09-26T09:19:34.770Z,20.02
2017-09-26T09:20:34.729Z,19.99
2017-09-26T09:21:34.408Z,20.1
2017-09-26T09:22:34.732Z,20.03
2017-09-26T09:23:34.722Z,20.08
2017-09-26T09:24:34.724Z,20.06
2017-09-26T09:25:34.941Z,19.94
2017-09-26T09:26:34.932Z,19.88
2017-09-26T09:27:34.449Z,19.94
2017-09-26T09:28:34.711Z,19.96
2017-09-26T09:29:34.917Z,20.1
2017-09-26T09:30:34.616Z,20.1
2017-09-26T09:31:34.709Z,20.02
2017-09-26T09:32:34.636Z,20.02
2017-09-26T09:33:34.745Z,20.05
2017-09-26T09:34:34.704Z,20.03
2017-09-26T09:35:34.697Z,20.06
2017-09-26T09:36:34.584Z,20.16
2017-09-26T09:37:34.699Z,20.18
2017-09-26T09:38:34.381Z,20.35
2017-09-26T09:39:34.618Z,20.51
2017-09-26T09:40:34.695Z,20.66
2017-09-26T09:41:35.003Z,20.73
2017-09-26T09:42:34.686Z,20.82
2017-09-26T09:43:34.373Z,20.91
2017-09-26T09:44:34.046Z,20.95
2017-09-26T09:45:34.680Z,20.94
2017-09-26T09:46:34.690Z,20.95
2017-09-26T09:47:34.681Z,20.97
2017-09-26T09:48:34.680Z,20.98
2017-09-26T09:49:34.358Z,20.98
2017-09-26T09:50:34.352Z,20.91
2017-09-26T09:51:34.357Z,20.85
2017-09-26T09:52:34.673Z,20.72
2017-09-26T09:53:34.670Z,20.7
2017-09-26T09:54:34.350Z,20.66
2017-09-26T09:55:34.059Z,20.55
2017-09-26T09:56:34.667Z,20.39
2017-09-26T09:57:34.666Z,20.2
2017-09-26T09:58:34.666Z,20.17
2017-09-26T09:59:34.661Z,20.23
2017-09-26T10:00:34.667Z,20.31
2017-09-26T10:01:34.656Z,20.38
2017-09-26T10:02:34.338Z,20.36
2017-09-26T10:03:34.583Z,20.31
2017-09-26T10:04:34.654Z,20.32
2017-09-26T10:05:34.329Z,20.18
2017-09-26T10:06:34.649Z,20.28
2017-09-26T10:07:34.643Z,20.11
2017-09-26T10:08:34.647Z,20.03
2017-09-26T10:09:34.332Z,20.16
2017-09-26T10:10:34.641Z,20.24
2017-09-26T10:11:34.636Z,20.28
2017-09-26T10:12:34.640Z,20.38
2017-09-26T10:13:34.315Z,20.51
2017-09-26T10:14:34.632Z,20.57
2017-09-26T10:15:34.650Z,20.66
2017-09-26T10:16:34.630Z,20.74
2017-09-26T10:17:34.627Z,20.7
2017-09-26T10:18:34.623Z,20.7
2017-09-26T10:19:34.626Z,20.76
2017-09-26T10:20:34.625Z,20.8
2017-09-26T10:21:34.300Z,20.92
2017-09-26T10:22:34.618Z,20.97
2017-09-26T10:23:34.627Z,21.01
2017-09-26T10:24:34.620Z,21.03
2017-09-26T10:25:34.614Z,20.97
2017-09-26T10:26:34.611Z,21.01
2017-09-26T10:27:34.616Z,20.99
2017-09-26T10:28:34.616Z,20.99
2017-09-26T10:29:34.607Z,21.09
2017-09-26T10:30:34.287Z,21.12
2017-09-26T10:31:34.603Z,21.12
2017-09-26T10:32:34.609Z,21.1
2017-09-26T10:33:34.283Z,21.1
2017-09-26T10:34:34.905Z,21.09
2017-09-26T10:35:34.601Z,21.03
2017-09-26T10:36:34.597Z,20.88
2017-09-26T10:37:34.600Z,20.85
2017-09-26T10:38:34.274Z,20.73
2017-09-26T10:39:34.594Z,20.74
2017-09-26T10:40:34.274Z,20.59
2017-09-26T10:41:34.591Z,20.5
2017-09-26T10:42:34.274Z,20.36
2017-09-26T10:43:34.594Z,20.35
2017-09-26T10:44:34.266Z,20.32
2017-09-26T10:45:34.588Z,20.29
2017-09-26T10:46:34.584Z,20.36
2017-09-26T10:47:34.589Z,20.24
2017-09-26T10:48:34.583Z,20.21
2017-09-26T10:49:34.262Z,20.18
2017-09-26T10:50:34.260Z,20.11
2017-09-26T10:51:34.572Z,20.05
2017-09-26T10:52:34.573Z,20.03
2017-09-26T10:53:34.573Z,20.1
2017-09-26T10:54:34.579Z,20.05
2017-09-26T10:55:34.567Z,20.02
2017-09-26T10:56:34.244Z,20.06
2017-09-26T10:57:34.241Z,20.16
2017-09-26T10:58:34.590Z,20.1
2017-09-26T10:59:34.236Z,20.21
2017-09-26T11:00:34.561Z,20.24
2017-09-26T11:01:34.556Z,20.24
2017-09-26T11:02:34.230Z,20.29
2017-09-26T11:03:34.226Z,20.36
2017-09-26T11:04:34.546Z,20.36
2017-09-26T11:05:34.546Z,20.35
2017-09-26T11:06:34.541Z,20.33
2017-09-26T11:07:34.219Z,20.41
2017-09-26T11:08:34.538Z,20.31
2017-09-26T11:09:34.534Z,20.38
2017-09-26T11:10:34.215Z,20.41
2017-09-26T11:11:34.534Z,20.36
2017-09-26T11:12:34.528Z,20.28
2017-09-26T11:13:34.208Z,20.26
2017-09-26T11:14:34.526Z,20.33
2017-09-26T11:15:34.527Z,20.33
2017-09-26T11:16:34.526Z,20.39
2017-09-26T11:17:34.208Z,20.36
2017-09-26T11:18:34.519Z,20.41
2017-09-26T11:19:34.517Z,20.41
2017-09-26T11:20:34.194Z,20.5
2017-09-26T11:21:34.511Z,20.51
2017-09-26T11:22:34.510Z,20.51
2017-09-26T11:23:34.512Z,20.38
2017-09-26T11:24:34.505Z,20.39
2017-09-26T11:25:34.513Z,20.35
2017-09-26T11:26:34.204Z,20.31
2017-09-26T11:27:34.504Z,20.32
2017-09-26T11:28:34.504Z,20.33
2017-09-26T11:29:34.176Z,20.38
2017-09-26T11:30:34.496Z,20.36
2017-09-26T11:31:34.545Z,20.42
2017-09-26T11:32:34.488Z,20.38
2017-09-26T11:33:34.174Z,20.43
2017-09-26T11:34:34.490Z,20.32
2017-09-26T11:35:34.489Z,20.32
2017-09-26T11:36:34.485Z,20.42
2017-09-26T11:37:34.163Z,20.41
2017-09-26T11:38:34.479Z,20.41
2017-09-26T11:39:34.481Z,20.42
2017-09-26T11:40:34.479Z,20.35
2017-09-26T11:41:34.475Z,20.41
2017-09-26T11:42:34.471Z,20.36
2017-09-26T11:43:34.478Z,20.51
2017-09-26T11:44:34.468Z,20.41
2017-09-26T11:45:34.146Z,20.51
2017-09-26T11:46:34.464Z,20.54
2017-09-26T11:47:34.143Z,20.51
2017-09-26T11:48:34.141Z,20.59
2017-09-26T11:49:34.465Z,20.66
2017-09-26T11:50:34.145Z,20.69
2017-09-26T11:51:34.456Z,20.77
2017-09-26T11:52:34.133Z,20.82
2017-09-26T11:53:34.453Z,20.89
2017-09-26T11:54:34.460Z,20.98
2017-09-26T11:55:34.444Z,20.92
2017-09-26T11:56:34.127Z,20.99
2017-09-26T11:57:34.448Z,21.07
2017-09-26T11:58:34.450Z,21.14
2017-09-26T11:59:34.449Z,21.21
2017-09-26T12:00:34.121Z,21.25
2017-09-26T12:01:34.443Z,21.31
2017-09-26T12:02:34.435Z,21.35
2017-09-26T12:03:34.441Z,21.4
2017-09-26T12:04:34.439Z,21.47
2017-09-26T12:05:34.432Z,21.46
2017-09-26T12:06:34.117Z,21.59
2017-09-26T12:07:34.439Z,21.61
2017-09-26T12:08:34.429Z,21.71
2017-09-26T12:09:34.437Z,21.72
2017-09-26T12:10:34.429Z,21.88
2017-09-26T12:11:34.430Z,21.9
2017-09-26T12:12:34.107Z,21.84
2017-09-26T12:13:34.434Z,21.9
2017-09-26T12:14:34.426Z,21.91
2017-09-26T12:15:34.106Z,21.92
2017-09-26T12:16:34.424Z,21.99
2017-09-26T12:17:34.355Z,22.07
2017-09-26T12:18:34.425Z,22
2017-09-26T12:19:34.426Z,21.98
2017-09-26T12:20:34.104Z,21.91
2017-09-26T12:21:34.109Z,21.94
2017-09-26T12:22:34.430Z,21.92
2017-09-26T12:23:34.111Z,22.06
2017-09-26T12:24:34.431Z,22
2017-09-26T12:25:34.105Z,22.09
2017-09-26T12:26:34.113Z,22.07
2017-09-26T12:27:34.428Z,22.05
2017-09-26T12:28:34.423Z,22.07
2017-09-26T12:29:34.108Z,22.02
2017-09-26T12:30:34.105Z,22.06
2017-09-26T12:31:34.430Z,22.06
2017-09-26T12:32:34.425Z,22.07
2017-09-26T12:33:34.433Z,22.09
2017-09-26T12:34:34.810Z,22.24
2017-09-26T12:35:34.112Z,22.4
2017-09-26T12:36:34.437Z,22.39
2017-09-26T12:37:34.434Z,22.54
2017-09-26T12:38:34.428Z,22.57
2017-09-26T12:39:34.359Z,22.6
2017-09-26T12:40:34.428Z,22.65
2017-09-26T12:41:34.428Z,22.68
2017-09-26T12:42:34.429Z,22.72
2017-09-26T12:43:34.439Z,22.76
2017-09-26T12:44:34.815Z,22.61
2017-09-26T12:45:34.109Z,22.52
2017-09-26T12:46:34.431Z,22.6
2017-09-26T12:47:34.108Z,22.35
2017-09-26T12:48:34.432Z,22.24
2017-09-26T12:49:34.431Z,22.12
2017-09-26T12:50:34.429Z,22.09
2017-09-26T12:51:34.429Z,22.12
2017-09-26T12:52:34.430Z,22.14
2017-09-26T12:53:34.433Z,22.05
2017-09-26T12:54:34.112Z,22.07
2017-09-26T12:55:34.110Z,21.92